Cimarron Hills, Colorado
Current Conditions -  °F | °C
As of 9:54 AM on Sunday 23 Nov 2014 (Local Time) from KCOS Reporting Station
Broken Clouds Broken Clouds  
Wind Chill: 23°   Ceiling: 11000
Heat Index: 34°   Visibility: 10mi
Dew Point: 22°   Wind: 17mph
Humidity: 61%   Direction: 330°NNW
Pressure: 29.78"   Gusts: NA
Location:  38.86°N, 104.69°W
Report Text: KCOS 231654Z 33015KT 10SM FEW040 SCT070 BKN110 01/M06 A2978 RMK AO2 PK WND 34027/1610 SLP076 VCSH OMTNS W T00111056
Loading
Personal Weather Stations






























Interactive Weather Map New forecast layout! Learn more

10-Day Weather Forecast

Advertisements
Track Severe Weather on mobile